Beverly, West Virginia
Current Conditions -  °F | °C
As of 2:51 AM on Tuesday 21 Oct 2014 (Local Time) from KEKN Reporting Station
Overcast Overcast  
Wind Chill: 49°   Ceiling: 5000
Heat Index: 49°   Visibility: 10mi
Dew Point: 46°   Wind: 3mph
Humidity: 90%   Direction: 190°S
Pressure: 29.91"   Gusts: NA
Location:  38.84°N, 79.88°W
Report Text: KEKN 210651Z AUTO 19003KT 10SM OVC050 09/08 A2991 RMK AO2 SLP132 T00940078 TSNO
Loading
Personal Weather Stations






























Interactive Weather Map New forecast layout! Learn more

10-Day Weather Forecast

Advertisements
Track Severe Weather on mobile